createdAt,value
2018-07-02T00:00:16.397Z,46.62
2018-07-02T00:01:16.404Z,47.08
2018-07-02T00:03:09.332Z,47.27
2018-07-02T00:04:09.328Z,48.13
2018-07-02T00:06:02.241Z,48.13
2018-07-02T00:07:02.260Z,48.33
2018-07-02T00:08:55.188Z,48.52
2018-07-02T00:09:55.190Z,48.71
2018-07-02T00:11:48.097Z,48.90
2018-07-02T00:12:48.117Z,48.69
2018-07-02T00:14:41.047Z,49.16
2018-07-02T00:15:41.049Z,48.69
2018-07-02T00:17:33.960Z,49.07
2018-07-02T00:18:33.980Z,49.48
2018-07-02T00:20:26.910Z,48.78
2018-07-02T00:21:26.923Z,49.16
2018-07-02T00:23:19.841Z,49.07
2018-07-02T00:24:19.841Z,49.26
2018-07-02T00:26:12.749Z,49.45
2018-07-02T00:27:12.772Z,49.65
2018-07-02T00:29:05.712Z,49.84
2018-07-02T00:30:05.715Z,49.84
2018-07-02T00:31:58.626Z,49.74
2018-07-02T00:32:58.650Z,49.65
2018-07-02T00:34:51.578Z,49.26
2018-07-02T00:35:51.578Z,49.26
2018-07-02T00:37:44.492Z,49.26
2018-07-02T00:38:44.507Z,49.55
2018-07-02T00:40:37.597Z,49.45
2018-07-02T00:41:37.598Z,49.65
2018-07-02T00:43:30.514Z,49.26
2018-07-02T00:44:30.537Z,49.84
2018-07-02T00:46:23.462Z,49.93
2018-07-02T00:47:23.463Z,50.03
2018-07-02T00:49:16.404Z,50.22
2018-07-02T00:50:16.393Z,50.48
2018-07-02T00:52:09.301Z,50.77
2018-07-02T00:53:09.320Z,50.87
2018-07-02T00:55:02.248Z,50.87
2018-07-02T00:56:02.250Z,50.48
2018-07-02T00:57:55.161Z,50.77
2018-07-02T00:58:55.183Z,50.77
2018-07-02T01:00:48.109Z,51.82
2018-07-02T01:01:48.110Z,51.63
2018-07-02T01:03:41.015Z,51.73
2018-07-02T01:04:41.040Z,51.54
2018-07-02T01:06:33.969Z,51.34
2018-07-02T01:07:33.967Z,51.61
2018-07-02T01:09:26.873Z,50.93
2018-07-02T01:10:26.896Z,50.77
2018-07-02T01:12:19.820Z,50.77
2018-07-02T01:13:19.821Z,50.96
2018-07-02T01:15:12.757Z,50.00
2018-07-02T01:16:12.754Z,50.48
2018-07-02T01:18:05.660Z,49.91
2018-07-02T01:19:05.683Z,50.58
2018-07-02T01:20:58.610Z,50.29
2018-07-02T01:21:58.609Z,50.10
2018-07-02T01:23:51.678Z,50.67
2018-07-02T01:24:51.703Z,50.96
2018-07-02T01:26:44.628Z,51.25
2018-07-02T01:27:44.628Z,51.22
2018-07-02T01:29:37.536Z,51.06
2018-07-02T01:30:37.557Z,50.84
2018-07-02T01:32:30.483Z,51.42
2018-07-02T01:33:30.487Z,51.22
2018-07-02T01:35:23.411Z,51.51
2018-07-02T01:36:23.412Z,50.93
2018-07-02T01:38:16.323Z,50.93
2018-07-02T01:39:16.343Z,50.74
2018-07-02T01:41:09.270Z,50.46
2018-07-02T01:42:09.270Z,50.46
2018-07-02T01:44:02.177Z,50.36
2018-07-02T01:45:02.197Z,50.46
2018-07-02T01:46:55.124Z,49.91
2018-07-02T01:47:55.126Z,49.60
2018-07-02T01:49:48.034Z,49.71
2018-07-02T01:50:48.056Z,49.71
2018-07-02T01:52:40.984Z,49.98
2018-07-02T01:53:40.983Z,50.36
2018-07-02T01:55:33.888Z,50.46
2018-07-02T01:56:33.909Z,50.36
2018-07-02T01:58:26.838Z,50.46
2018-07-02T01:59:26.836Z,50.84
2018-07-02T02:01:19.764Z,50.84
2018-07-02T02:02:19.784Z,50.74
2018-07-02T02:04:12.670Z,51.03
2018-07-02T02:05:12.691Z,50.84
2018-07-02T02:07:05.617Z,50.93
2018-07-02T02:08:05.616Z,51.42
2018-07-02T02:09:58.528Z,51.51
2018-07-02T02:10:58.556Z,51.70
2018-07-02T02:12:51.476Z,51.03
2018-07-02T02:13:51.472Z,50.74
2018-07-02T02:15:44.380Z,51.61
2018-07-02T02:16:44.400Z,51.51
2018-07-02T02:18:37.332Z,51.42
2018-07-02T02:19:37.374Z,51.61
2018-07-02T02:21:30.491Z,51.61
2018-07-02T02:22:30.482Z,51.70
2018-07-02T02:24:23.390Z,51.70
2018-07-02T02:25:23.410Z,51.79
2018-07-02T02:27:16.343Z,51.89
2018-07-02T02:28:16.341Z,51.79
2018-07-02T02:30:09.246Z,52.09
2018-07-02T02:31:09.268Z,51.70
2018-07-02T02:33:02.192Z,51.70
2018-07-02T02:34:02.197Z,51.79
2018-07-02T02:35:55.103Z,51.70
2018-07-02T02:36:55.119Z,51.79
2018-07-02T02:38:48.048Z,51.89
2018-07-02T02:39:48.043Z,51.99
2018-07-02T02:41:40.970Z,51.89
2018-07-02T02:42:40.970Z,52.75
2018-07-02T02:44:33.876Z,52.18
2018-07-02T02:45:33.897Z,52.56
2018-07-02T02:47:26.825Z,52.37
2018-07-02T02:48:26.823Z,52.34
2018-07-02T02:50:19.729Z,52.73
2018-07-02T02:51:19.751Z,52.54
2018-07-02T02:53:12.677Z,52.44
2018-07-02T02:54:12.676Z,53.11
2018-07-02T02:56:05.586Z,53.20
2018-07-02T02:57:05.603Z,53.11
2018-07-02T02:58:58.535Z,53.11
2018-07-02T02:59:58.531Z,52.83
2018-07-02T03:01:51.519Z,53.20
2018-07-02T03:02:51.463Z,52.92
2018-07-02T03:04:44.366Z,53.02
2018-07-02T03:05:44.387Z,52.92
2018-07-02T03:07:37.314Z,52.92
2018-07-02T03:08:37.315Z,52.83
2018-07-02T03:10:30.219Z,53.20
2018-07-02T03:11:30.240Z,51.97
2018-07-02T03:13:23.167Z,52.54
2018-07-02T03:14:23.168Z,52.06
2018-07-02T03:16:16.071Z,52.15
2018-07-02T03:17:16.105Z,53.11
2018-07-02T03:19:09.017Z,52.92
2018-07-02T03:20:09.018Z,52.73
2018-07-02T03:22:01.924Z,52.54
2018-07-02T03:23:01.947Z,52.73
2018-07-02T03:24:54.870Z,52.83
2018-07-02T03:25:54.871Z,52.83
2018-07-02T03:27:47.796Z,52.44
2018-07-02T03:28:47.794Z,53.11
2018-07-02T03:30:40.710Z,53.30
2018-07-02T03:31:40.735Z,53.02
2018-07-02T03:33:33.817Z,53.11
2018-07-02T03:34:33.821Z,53.11
2018-07-02T03:36:26.725Z,53.11
2018-07-02T03:37:26.738Z,53.11
2018-07-02T03:39:19.667Z,53.69
2018-07-02T03:40:19.665Z,53.20
2018-07-02T03:42:12.577Z,53.11
2018-07-02T03:43:12.596Z,53.20
2018-07-02T03:45:05.527Z,53.11
2018-07-02T03:46:05.523Z,53.30
2018-07-02T03:47:58.464Z,53.11
2018-07-02T03:48:58.450Z,53.14
2018-07-02T03:50:51.520Z,52.50
2018-07-02T03:51:51.543Z,51.92
2018-07-02T03:53:44.466Z,49.86
2018-07-02T03:54:44.466Z,48.80
2018-07-02T03:56:37.373Z,46.62
2018-07-02T03:57:37.767Z,46.36
2018-07-02T03:59:30.321Z,45.42
2018-07-02T04:00:30.321Z,44.96
2018-07-02T04:02:23.231Z,43.84
2018-07-02T04:03:23.258Z,43.74
2018-07-02T04:05:16.184Z,42.32
2018-07-02T04:06:16.183Z,41.93
2018-07-02T04:08:09.094Z,40.61
2018-07-02T04:09:09.116Z,40.61
2018-07-02T04:11:02.051Z,40.03
2018-07-02T04:12:02.095Z,39.86
2018-07-02T04:13:54.983Z,39.16
2018-07-02T04:14:54.985Z,39.37
2018-07-02T04:16:47.895Z,39.20
2018-07-02T04:17:47.919Z,38.91
2018-07-02T04:19:40.857Z,37.87
2018-07-02T04:20:40.864Z,37.77
2018-07-02T04:22:33.774Z,37.31
2018-07-02T04:23:33.798Z,36.93
2018-07-02T04:25:26.738Z,37.01
2018-07-02T04:26:26.744Z,37.01
2018-07-02T04:28:19.654Z,37.01
2018-07-02T04:29:19.678Z,37.39
2018-07-02T04:31:12.665Z,37.12
2018-07-02T04:32:12.668Z,37.21
2018-07-02T04:34:05.623Z,37.12
2018-07-02T04:35:05.615Z,36.75
2018-07-02T04:36:58.530Z,35.42
2018-07-02T04:37:58.562Z,35.32
2018-07-02T04:39:51.493Z,34.39
2018-07-02T04:40:51.501Z,34.39
2018-07-02T04:42:44.415Z,34.50
2018-07-02T04:43:44.445Z,34.41
2018-07-02T04:45:37.381Z,33.18
2018-07-02T04:46:37.389Z,32.52
2018-07-02T04:48:30.304Z,30.69
2018-07-02T04:49:30.335Z,30.42
2018-07-02T04:51:23.278Z,30.44
2018-07-02T04:52:23.282Z,29.38
2018-07-02T04:54:16.274Z,27.86
2018-07-02T04:55:16.235Z,27.76
2018-07-02T04:57:09.158Z,26.33
2018-07-02T04:58:09.187Z,26.43
2018-07-02T05:00:02.131Z,26.44
2018-07-02T05:01:02.138Z,26.17
2018-07-02T05:02:55.061Z,24.80
2018-07-02T05:03:55.091Z,25.19
2018-07-02T05:05:48.036Z,25.76
2018-07-02T05:06:48.045Z,25.87
2018-07-02T05:08:41.968Z,24.80
2018-07-02T05:09:41.997Z,24.61
2018-07-02T05:11:34.944Z,25.48
2018-07-02T05:12:34.951Z,25.19
2018-07-02T05:14:27.878Z,24.99
2018-07-02T05:15:27.913Z,24.79
2018-07-02T05:17:20.852Z,25.08
2018-07-02T05:18:20.861Z,25.85
2018-07-02T05:20:13.810Z,26.12
2018-07-02T05:21:13.818Z,27.00
2018-07-02T05:23:06.748Z,27.18
2018-07-02T05:24:06.777Z,27.29
2018-07-02T05:25:59.728Z,26.82
2018-07-02T05:26:59.734Z,26.44
2018-07-02T05:28:52.663Z,26.64
2018-07-02T05:29:52.692Z,26.44
2018-07-02T05:31:45.646Z,26.25
2018-07-02T05:32:45.653Z,26.14
2018-07-02T05:34:38.582Z,26.92
2018-07-02T05:35:38.611Z,26.14
2018-07-02T05:37:31.565Z,26.43
2018-07-02T05:38:31.571Z,26.44
2018-07-02T05:40:24.595Z,26.25
2018-07-02T05:41:24.531Z,25.18
2018-07-02T05:43:17.458Z,25.29
2018-07-02T05:44:17.493Z,25.01
2018-07-02T05:46:10.438Z,24.73
2018-07-02T05:47:10.450Z,24.04
2018-07-02T05:49:03.378Z,24.23
2018-07-02T05:50:03.410Z,24.51
2018-07-02T05:51:56.368Z,24.61
2018-07-02T05:52:56.373Z,25.37
2018-07-02T05:54:49.379Z,24.98
2018-07-02T05:55:49.337Z,25.27
2018-07-02T05:57:42.291Z,25.19
2018-07-02T05:58:42.306Z,24.71
2018-07-02T06:00:35.293Z,24.33
2018-07-02T06:01:35.266Z,24.72
2018-07-02T06:03:28.194Z,24.62
2018-07-02T06:04:28.227Z,23.95
2018-07-02T06:06:21.183Z,23.17
2018-07-02T06:07:21.194Z,23.67
2018-07-02T06:09:14.125Z,22.31
2018-07-02T06:10:14.156Z,22.51
2018-07-02T06:12:07.111Z,22.69
2018-07-02T06:13:07.123Z,23.18
2018-07-02T06:15:00.141Z,23.55
2018-07-02T06:16:00.089Z,23.65
2018-07-02T06:17:53.034Z,23.84
2018-07-02T06:18:53.048Z,23.84
2018-07-02T06:20:46.005Z,23.66
2018-07-02T06:21:46.014Z,23.56
2018-07-02T06:23:38.952Z,22.69
2018-07-02T06:24:39.024Z,22.79
2018-07-02T06:26:31.938Z,22.22
2018-07-02T06:27:31.949Z,22.10
2018-07-02T06:29:24.884Z,23.07
2018-07-02T06:30:24.937Z,22.97
2018-07-02T06:32:17.878Z,24.12
2018-07-02T06:33:17.887Z,24.32
2018-07-02T06:35:10.819Z,23.73
2018-07-02T06:36:10.854Z,23.83
2018-07-02T06:38:03.812Z,24.51
2018-07-02T06:39:03.825Z,24.04
2018-07-02T06:40:56.758Z,23.66
2018-07-02T06:41:56.822Z,23.74
2018-07-02T06:43:49.752Z,23.46
2018-07-02T06:44:49.763Z,22.89
2018-07-02T06:46:42.729Z,23.28
2018-07-02T06:47:42.741Z,22.12
2018-07-02T06:49:35.679Z,21.71
2018-07-02T06:50:35.713Z,22.47
2018-07-02T06:52:28.674Z,23.83
2018-07-02T06:53:28.684Z,23.63
2018-07-02T06:55:21.621Z,24.12
2018-07-02T06:56:21.653Z,23.43
2018-07-02T06:58:14.612Z,23.83
2018-07-02T06:59:14.629Z,24.21
2018-07-02T07:01:07.561Z,24.21
2018-07-02T07:02:07.595Z,24.78
2018-07-02T07:04:00.554Z,24.88
2018-07-02T07:05:00.568Z,25.15
2018-07-02T07:06:53.506Z,24.88
2018-07-02T07:07:53.540Z,25.05
2018-07-02T07:09:46.499Z,25.65
2018-07-02T07:10:46.510Z,26.12
2018-07-02T07:12:39.676Z,26.62
2018-07-02T07:13:39.686Z,26.53
2018-07-02T07:15:32.849Z,27.21
2018-07-02T07:16:32.845Z,26.53
2018-07-02T07:18:25.804Z,26.15
2018-07-02T07:19:25.816Z,25.75
2018-07-02T07:21:18.921Z,25.86
2018-07-02T07:22:18.958Z,25.67
2018-07-02T07:24:11.916Z,25.29
2018-07-02T07:25:11.929Z,25.19
2018-07-02T07:27:04.866Z,25.19
2018-07-02T07:28:04.901Z,26.07
2018-07-02T07:29:57.861Z,25.09
2018-07-02T07:30:57.902Z,25.08
2018-07-02T07:32:50.834Z,25.18
2018-07-02T07:33:50.844Z,26.15
2018-07-02T07:35:43.784Z,26.14
2018-07-02T07:36:43.812Z,26.14
2018-07-02T07:38:36.773Z,26.42
2018-07-02T07:39:36.779Z,26.40
2018-07-02T07:41:29.708Z,26.40
2018-07-02T07:42:29.740Z,26.01
2018-07-02T07:44:22.689Z,26.60
2018-07-02T07:45:22.698Z,27.26
2018-07-02T07:47:15.628Z,27.46
2018-07-02T07:48:15.654Z,27.35
2018-07-02T07:50:08.599Z,28.50
2018-07-02T07:51:08.608Z,28.69
2018-07-02T07:53:01.553Z,28.11
2018-07-02T07:54:01.562Z,28.02
2018-07-02T07:55:54.508Z,28.69
2018-07-02T07:56:54.515Z,29.26
2018-07-02T07:58:47.465Z,29.55
2018-07-02T07:59:47.469Z,30.42
2018-07-02T08:01:40.393Z,31.20
2018-07-02T08:02:40.422Z,31.59
2018-07-02T08:04:33.362Z,30.13
2018-07-02T08:05:33.376Z,30.71
2018-07-02T08:07:26.291Z,31.47
2018-07-02T08:08:26.322Z,31.36
2018-07-02T08:10:19.264Z,32.62
2018-07-02T08:11:19.271Z,32.33
2018-07-02T08:13:12.188Z,32.23
2018-07-02T08:14:12.218Z,32.82
2018-07-02T08:16:05.166Z,30.51
2018-07-02T08:17:05.165Z,30.78
2018-07-02T08:18:58.177Z,30.79
2018-07-02T08:19:58.116Z,30.51
2018-07-02T08:21:51.032Z,31.18
2018-07-02T08:22:51.062Z,31.09
2018-07-02T08:24:44.003Z,31.47
2018-07-02T08:25:44.016Z,32.15
2018-07-02T08:27:36.927Z,31.36
2018-07-02T08:28:36.959Z,31.65
2018-07-02T08:30:29.898Z,32.71
2018-07-02T08:31:29.905Z,32.52
2018-07-02T08:33:22.828Z,31.47
2018-07-02T08:34:22.852Z,30.79
2018-07-02T08:36:15.790Z,30.98
2018-07-02T08:37:15.800Z,30.88
2018-07-02T08:39:08.755Z,31.36
2018-07-02T08:40:08.746Z,31.94
2018-07-02T08:42:01.668Z,32.14
2018-07-02T08:43:01.694Z,31.57
2018-07-02T08:44:54.634Z,31.18
2018-07-02T08:45:54.643Z,31.28
2018-07-02T08:47:47.564Z,30.79
2018-07-02T08:48:47.591Z,29.34
2018-07-02T08:50:40.531Z,30.08
2018-07-02T08:51:40.543Z,30.57
2018-07-02T08:53:33.460Z,31.44
2018-07-02T08:54:33.488Z,31.33
2018-07-02T08:56:26.430Z,30.38
2018-07-02T08:57:26.435Z,30.57
2018-07-02T08:59:19.356Z,30.10
2018-07-02T09:00:19.385Z,29.52
2018-07-02T09:02:12.321Z,28.73
2018-07-02T09:03:12.331Z,28.75
2018-07-02T09:05:05.492Z,29.23
2018-07-02T09:06:05.497Z,29.81
2018-07-02T09:07:58.416Z,29.34
2018-07-02T09:08:58.446Z,28.08
2018-07-02T09:10:51.384Z,26.43
2018-07-02T09:11:51.392Z,26.34
2018-07-02T09:13:44.310Z,26.43
2018-07-02T09:14:44.345Z,26.15
2018-07-02T09:16:37.277Z,26.25
2018-07-02T09:17:37.298Z,26.82
2018-07-02T09:19:30.205Z,26.15
2018-07-02T09:20:30.234Z,26.25
2018-07-02T09:22:23.170Z,26.25
2018-07-02T09:23:23.180Z,27.13
2018-07-02T09:25:16.102Z,26.16
2018-07-02T09:26:16.129Z,26.06
2018-07-02T09:28:09.069Z,25.09
2018-07-02T09:29:09.078Z,26.06
2018-07-02T09:31:02.023Z,26.93
2018-07-02T09:32:02.027Z,26.34
2018-07-02T09:33:54.944Z,27.01
2018-07-02T09:34:54.974Z,27.13
2018-07-02T09:36:47.920Z,27.13
2018-07-02T09:37:47.928Z,26.34
2018-07-02T09:39:40.857Z,26.23
2018-07-02T09:40:40.878Z,26.90
2018-07-02T09:42:33.821Z,27.97
2018-07-02T09:43:33.828Z,28.07
2018-07-02T09:45:26.970Z,28.18
2018-07-02T09:46:26.775Z,27.31
2018-07-02T09:48:19.723Z,27.40
2018-07-02T09:49:19.727Z,28.18
2018-07-02T09:51:12.648Z,27.70
2018-07-02T09:52:12.674Z,28.08
2018-07-02T09:54:05.616Z,27.79
2018-07-02T09:55:05.624Z,28.47
2018-07-02T09:56:58.562Z,27.70
2018-07-02T09:57:58.567Z,27.98
2018-07-02T09:59:51.702Z,28.76
2018-07-02T10:00:51.728Z,28.47
2018-07-02T10:02:44.671Z,29.05
2018-07-02T10:03:44.679Z,28.85
2018-07-02T10:05:37.819Z,29.23
2018-07-02T10:06:37.896Z,29.61
2018-07-02T10:08:30.789Z,29.03
2018-07-02T10:09:30.796Z,30.00
2018-07-02T10:11:23.714Z,30.29
2018-07-02T10:12:23.743Z,30.49
2018-07-02T10:14:16.680Z,30.29
2018-07-02T10:15:16.690Z,30.60
2018-07-02T10:17:09.636Z,31.16
2018-07-02T10:18:09.642Z,30.41
2018-07-02T10:20:02.564Z,30.29
2018-07-02T10:21:02.593Z,30.31
2018-07-02T10:22:55.531Z,30.20
2018-07-02T10:23:55.587Z,30.10
2018-07-02T10:25:48.473Z,30.10
2018-07-02T10:26:48.487Z,30.10
2018-07-02T10:28:41.426Z,31.16
2018-07-02T10:29:41.436Z,31.26
2018-07-02T10:31:34.352Z,31.07
2018-07-02T10:32:34.386Z,31.28
2018-07-02T10:34:27.329Z,31.36
2018-07-02T10:35:27.325Z,31.46
2018-07-02T10:37:20.267Z,30.58
2018-07-02T10:38:20.274Z,31.36
2018-07-02T10:40:13.196Z,31.37
2018-07-02T10:41:13.221Z,31.37
2018-07-02T10:43:06.160Z,30.78
2018-07-02T10:44:06.170Z,31.36
2018-07-02T10:45:59.096Z,32.12
2018-07-02T10:46:59.169Z,31.44
2018-07-02T10:48:52.073Z,31.94
2018-07-02T10:49:52.075Z,32.42
2018-07-02T10:51:45.030Z,30.68
2018-07-02T10:52:45.041Z,30.99
2018-07-02T10:54:37.982Z,31.18
2018-07-02T10:55:38.050Z,31.37
2018-07-02T10:57:30.912Z,30.79
2018-07-02T10:58:30.940Z,30.69
2018-07-02T11:00:23.887Z,30.31
2018-07-02T11:01:23.954Z,29.92
2018-07-02T11:03:16.841Z,29.53
2018-07-02T11:04:16.841Z,30.23
2018-07-02T11:06:09.761Z,29.83
2018-07-02T11:07:09.788Z,30.02
2018-07-02T11:09:02.726Z,30.51
2018-07-02T11:10:02.737Z,30.02
2018-07-02T11:11:55.656Z,29.05
2018-07-02T11:12:55.683Z,29.53
2018-07-02T11:14:48.627Z,30.02
2018-07-02T11:15:48.633Z,29.84
2018-07-02T11:17:41.550Z,28.47
2018-07-02T11:18:41.579Z,29.34
2018-07-02T11:20:34.514Z,29.05
2018-07-02T11:21:34.527Z,29.05
2018-07-02T11:23:27.466Z,29.24
2018-07-02T11:24:27.476Z,29.53
2018-07-02T11:26:20.529Z,30.32
2018-07-02T11:27:20.555Z,30.32
2018-07-02T11:29:13.497Z,29.16
2018-07-02T11:30:13.556Z,29.94
2018-07-02T11:32:06.426Z,29.26
2018-07-02T11:33:06.451Z,29.66
2018-07-02T11:34:59.394Z,28.69
2018-07-02T11:35:59.398Z,28.79
2018-07-02T11:37:52.325Z,27.43
2018-07-02T11:38:52.351Z,27.43
2018-07-02T11:40:45.300Z,28.40
2018-07-02T11:41:45.305Z,27.82
2018-07-02T11:43:38.227Z,27.33
2018-07-02T11:44:38.257Z,27.54
2018-07-02T11:46:31.197Z,27.15
2018-07-02T11:47:31.205Z,26.75
2018-07-02T11:49:24.144Z,27.33
2018-07-02T11:50:24.153Z,27.82
2018-07-02T11:52:17.077Z,28.02
2018-07-02T11:53:17.101Z,28.30
2018-07-02T11:55:10.041Z,27.33
2018-07-02T11:56:10.053Z,27.32
2018-07-02T11:58:02.972Z,27.72
2018-07-02T11:59:03.001Z,28.11
2018-07-02T12:00:55.947Z,27.14
2018-07-02T12:01:55.998Z,28.20
2018-07-02T12:03:48.871Z,28.79
2018-07-02T12:04:48.898Z,28.40
2018-07-02T12:06:41.839Z,27.53
2018-07-02T12:07:41.847Z,27.92
2018-07-02T12:09:34.787Z,27.43
2018-07-02T12:10:34.797Z,27.33
2018-07-02T12:12:27.720Z,27.43
2018-07-02T12:13:27.745Z,27.33
2018-07-02T12:15:20.725Z,28.30
2018-07-02T12:16:20.696Z,27.62
2018-07-02T12:18:13.625Z,26.95
2018-07-02T12:19:13.650Z,27.04
2018-07-02T12:21:06.592Z,27.53
2018-07-02T12:22:06.602Z,27.82
2018-07-02T12:23:59.545Z,27.62
2018-07-02T12:24:59.571Z,27.24
2018-07-02T12:26:52.511Z,27.04
2018-07-02T12:27:52.521Z,27.04
2018-07-02T12:29:45.459Z,27.14
2018-07-02T12:30:45.472Z,27.06
2018-07-02T12:32:38.389Z,26.27
2018-07-02T12:33:38.428Z,26.37
2018-07-02T12:35:31.354Z,26.07
2018-07-02T12:36:31.365Z,26.37
2018-07-02T12:38:24.290Z,26.46
2018-07-02T12:39:24.314Z,26.37
2018-07-02T12:41:17.294Z,26.48
2018-07-02T12:42:17.269Z,26.48
2018-07-02T12:44:10.195Z,27.25
2018-07-02T12:45:10.222Z,27.35
2018-07-02T12:47:03.173Z,26.48
2018-07-02T12:48:03.178Z,25.21
2018-07-02T12:49:56.138Z,26.86
2018-07-02T12:50:56.130Z,26.28
2018-07-02T12:52:49.088Z,26.09
2018-07-02T12:53:49.080Z,25.21
2018-07-02T12:55:42.086Z,25.99
2018-07-02T12:56:42.065Z,24.83
2018-07-02T12:58:34.949Z,26.28
2018-07-02T12:59:34.978Z,25.89
2018-07-02T13:01:27.920Z,26.39
2018-07-02T13:02:27.928Z,27.25
2018-07-02T13:04:20.864Z,26.67
2018-07-02T13:05:20.876Z,27.25
2018-07-02T13:07:14.810Z,26.38
2018-07-02T13:08:14.818Z,26.46
2018-07-02T13:10:07.745Z,27.06
2018-07-02T13:11:07.768Z,26.46
2018-07-02T13:13:00.847Z,25.89
2018-07-02T13:14:00.717Z,25.89
2018-07-02T13:15:53.773Z,26.38
2018-07-02T13:16:53.668Z,26.18
2018-07-02T13:18:46.592Z,26.18
2018-07-02T13:19:46.615Z,26.38
2018-07-02T13:21:40.081Z,25.12
2018-07-02T13:22:40.090Z,26.17
2018-07-02T13:24:33.013Z,26.86
2018-07-02T13:25:33.039Z,26.76
2018-07-02T13:27:25.981Z,25.79
2018-07-02T13:28:25.987Z,26.48
2018-07-02T13:30:18.916Z,26.87
2018-07-02T13:31:18.939Z,26.00
2018-07-02T13:33:11.881Z,25.52
2018-07-02T13:34:11.887Z,25.41
2018-07-02T13:36:04.833Z,25.23
2018-07-02T13:37:04.856Z,25.32
2018-07-02T13:38:57.764Z,25.03
2018-07-02T13:39:57.791Z,25.03
2018-07-02T13:41:50.751Z,24.26
2018-07-02T13:42:50.746Z,24.06
2018-07-02T13:44:43.668Z,24.65
2018-07-02T13:45:43.697Z,24.16
2018-07-02T13:47:37.635Z,24.55
2018-07-02T13:48:37.648Z,23.38
2018-07-02T13:50:30.570Z,24.84
2018-07-02T13:51:30.593Z,24.65
2018-07-02T13:53:23.543Z,25.03
2018-07-02T13:54:23.546Z,24.74
2018-07-02T13:56:16.469Z,24.06
2018-07-02T13:57:16.496Z,23.77
2018-07-02T13:59:09.448Z,24.26
2018-07-02T14:00:09.478Z,23.68
2018-07-02T14:02:02.393Z,24.66
2018-07-02T14:03:02.399Z,24.17
2018-07-02T14:04:55.468Z,24.18
2018-07-02T14:05:55.497Z,23.89
2018-07-02T14:07:48.448Z,23.70
2018-07-02T14:08:48.451Z,23.79
2018-07-02T14:10:41.376Z,23.30
2018-07-02T14:11:41.400Z,23.59
2018-07-02T14:13:34.354Z,23.59
2018-07-02T14:14:34.375Z,22.72
2018-07-02T14:16:27.285Z,23.00
2018-07-02T14:17:27.314Z,23.10
2018-07-02T14:19:20.263Z,23.19
2018-07-02T14:20:20.270Z,23.28
2018-07-02T14:22:13.192Z,23.09
2018-07-02T14:23:13.220Z,23.28
2018-07-02T14:25:06.161Z,23.19
2018-07-02T14:26:06.173Z,24.16
2018-07-02T14:27:59.119Z,23.09
2018-07-02T14:28:59.121Z,22.99
2018-07-02T14:30:52.047Z,22.62
2018-07-02T14:31:52.074Z,22.52
2018-07-02T14:33:45.026Z,22.03
2018-07-02T14:34:45.033Z,22.62
2018-07-02T14:36:37.964Z,22.33
2018-07-02T14:37:37.989Z,22.13
2018-07-02T14:39:30.969Z,23.39
2018-07-02T14:40:30.941Z,23.10
2018-07-02T14:42:23.868Z,22.72
2018-07-02T14:43:23.896Z,22.14
2018-07-02T14:45:17.029Z,23.31
2018-07-02T14:46:16.850Z,21.66
2018-07-02T14:48:09.804Z,22.05
2018-07-02T14:49:09.804Z,21.56
2018-07-02T14:51:02.760Z,21.06
2018-07-02T14:52:02.757Z,20.68
2018-07-02T14:53:55.703Z,21.08
2018-07-02T14:54:55.713Z,20.20
2018-07-02T14:56:48.648Z,20.77
2018-07-02T14:57:48.674Z,19.90
2018-07-02T14:59:41.624Z,20.58
2018-07-02T15:00:41.628Z,21.94
2018-07-02T15:02:34.553Z,21.65
2018-07-02T15:03:34.581Z,21.75
2018-07-02T15:05:27.729Z,21.36
2018-07-02T15:06:27.736Z,20.97
2018-07-02T15:08:20.679Z,21.94
2018-07-02T15:09:20.686Z,21.94
2018-07-02T15:11:13.614Z,21.55
2018-07-02T15:12:13.641Z,20.87
2018-07-02T15:14:06.589Z,20.97
2018-07-02T15:15:06.596Z,20.97
2018-07-02T15:16:59.518Z,21.06
2018-07-02T15:17:59.547Z,20.97
2018-07-02T15:19:52.496Z,21.06
2018-07-02T15:20:52.499Z,21.26
2018-07-02T15:22:45.425Z,20.39
2018-07-02T15:23:45.456Z,20.68
2018-07-02T15:25:38.405Z,20.98
2018-07-02T15:26:38.406Z,20.30
2018-07-02T15:28:31.356Z,20.19
2018-07-02T15:29:31.361Z,20.09
2018-07-02T15:31:24.296Z,20.00
2018-07-02T15:32:24.323Z,20.58
2018-07-02T15:34:17.267Z,20.87
2018-07-02T15:35:17.273Z,20.58
2018-07-02T15:37:10.195Z,20.77
2018-07-02T15:38:10.225Z,20.97
2018-07-02T15:40:03.166Z,20.09
2018-07-02T15:41:03.170Z,20.09
2018-07-02T15:42:56.413Z,19.02
2018-07-02T15:43:56.441Z,18.93
2018-07-02T15:45:49.392Z,19.21
2018-07-02T15:46:49.400Z,19.11
2018-07-02T15:48:42.322Z,18.73
2018-07-02T15:49:42.349Z,18.82
2018-07-02T15:51:35.300Z,18.05
2018-07-02T15:52:35.302Z,18.53
2018-07-02T15:54:28.292Z,18.05
2018-07-02T15:55:28.255Z,18.53
2018-07-02T15:57:21.184Z,18.15
2018-07-02T15:58:21.211Z,18.15
2018-07-02T16:00:14.168Z,17.96
2018-07-02T16:01:14.175Z,17.96
2018-07-02T16:03:07.096Z,18.15
2018-07-02T16:04:07.124Z,18.15
2018-07-02T16:06:00.067Z,18.35
2018-07-02T16:07:00.075Z,18.73
2018-07-02T16:08:52.996Z,18.45
2018-07-02T16:09:53.023Z,18.35
2018-07-02T16:11:45.970Z,18.73
2018-07-02T16:12:45.978Z,17.97
2018-07-02T16:14:38.905Z,17.97
2018-07-02T16:15:38.936Z,17.18
2018-07-02T16:17:31.944Z,18.15
2018-07-02T16:18:31.910Z,18.55
2018-07-02T16:20:24.832Z,17.96
2018-07-02T16:21:24.838Z,18.45
2018-07-02T16:23:17.766Z,18.16
2018-07-02T16:24:17.795Z,18.74
2018-07-02T16:26:10.745Z,17.97
2018-07-02T16:27:10.756Z,18.35
2018-07-02T16:29:03.723Z,18.05
2018-07-02T16:30:03.752Z,18.54
2018-07-02T16:31:56.701Z,18.64
2018-07-02T16:32:56.702Z,18.25
2018-07-02T16:34:49.623Z,18.25
2018-07-02T16:35:49.717Z,18.24
2018-07-02T16:37:42.598Z,18.73
2018-07-02T16:38:42.599Z,18.82
2018-07-02T16:40:35.552Z,18.92
2018-07-02T16:41:36.136Z,19.31
2018-07-02T16:43:28.500Z,19.02
2018-07-02T16:44:28.530Z,19.11
2018-07-02T16:46:21.653Z,19.40
2018-07-02T16:47:21.658Z,19.40
2018-07-02T16:49:14.589Z,19.31
2018-07-02T16:50:14.617Z,18.62
2018-07-02T16:52:07.559Z,18.91
2018-07-02T16:53:07.565Z,19.01
2018-07-02T16:55:00.678Z,19.20
2018-07-02T16:56:00.705Z,19.59
2018-07-02T16:57:53.659Z,20.07
2018-07-02T16:58:53.657Z,19.88
2018-07-02T17:00:46.596Z,19.68
2018-07-02T17:01:46.606Z,19.68
2018-07-02T17:03:39.533Z,19.78
2018-07-02T17:04:39.737Z,19.88
2018-07-02T17:06:33.493Z,19.59
2018-07-02T17:07:33.501Z,19.88
2018-07-02T17:09:26.434Z,19.78
2018-07-02T17:10:26.464Z,19.78
2018-07-02T17:12:19.546Z,19.40
2018-07-02T17:13:19.612Z,19.79
2018-07-02T17:15:12.694Z,19.89
2018-07-02T17:16:12.712Z,19.89
2018-07-02T17:18:05.655Z,19.79
2018-07-02T17:19:05.714Z,19.79
2018-07-02T17:20:59.642Z,19.78
2018-07-02T17:21:59.609Z,19.88
2018-07-02T17:23:52.535Z,20.27
2018-07-02T17:24:52.573Z,19.78
2018-07-02T17:26:45.501Z,19.98
2018-07-02T17:27:45.501Z,19.88
2018-07-02T17:29:38.430Z,19.88
2018-07-02T17:30:38.454Z,20.26
2018-07-02T17:32:31.392Z,20.06
2018-07-02T17:33:31.402Z,20.26
2018-07-02T17:35:24.320Z,19.88
2018-07-02T17:36:24.361Z,19.88
2018-07-02T17:38:17.290Z,19.40
2018-07-02T17:39:17.300Z,19.88
2018-07-02T17:41:10.221Z,19.98
2018-07-02T17:42:10.247Z,19.68
2018-07-02T17:44:03.186Z,19.68
2018-07-02T17:45:03.194Z,19.88
2018-07-02T17:46:56.137Z,19.88
2018-07-02T17:47:56.665Z,19.60
2018-07-02T17:49:49.265Z,19.22
2018-07-02T17:50:49.291Z,18.94
2018-07-02T17:52:42.239Z,18.94
2018-07-02T17:53:42.243Z,18.74
2018-07-02T17:55:35.161Z,18.75
2018-07-02T17:56:35.191Z,19.24
2018-07-02T17:58:28.133Z,19.13
2018-07-02T17:59:28.141Z,18.74
2018-07-02T18:01:21.067Z,18.74
2018-07-02T18:02:21.089Z,19.23
2018-07-02T18:04:14.040Z,19.04
2018-07-02T18:05:14.044Z,19.24
2018-07-02T18:07:06.988Z,19.73
2018-07-02T18:08:06.998Z,19.82
2018-07-02T18:09:59.925Z,19.82
2018-07-02T18:10:59.956Z,19.91
2018-07-02T18:12:52.978Z,20.30
2018-07-02T18:13:52.936Z,20.01
2018-07-02T18:15:45.876Z,20.31
2018-07-02T18:16:45.874Z,20.01
2018-07-02T18:18:38.824Z,19.44
2018-07-02T18:19:38.838Z,19.24
2018-07-02T18:21:31.755Z,19.06
2018-07-02T18:22:31.791Z,19.26
2018-07-02T18:24:24.729Z,18.48
2018-07-02T18:25:24.736Z,18.38
2018-07-02T18:27:17.663Z,18.96
2018-07-02T18:28:17.693Z,19.06
2018-07-02T18:30:10.638Z,19.15
2018-07-02T18:31:10.651Z,19.35
2018-07-02T18:33:03.595Z,19.25